Time;durP1;ratioP1;P1;durP2;ratioP2;P2;SDS_P1;SDS_P2;PMS_P1;PMS_P2;Temp;Humidity;BMP_temperature;BMP_pressure;BME280_temperature;BME280_humidity;BME280_pressure;Samples;Min_cycle;Max_cycle;Signal;HPM_P1;HPM_P2
2022/10/02 00:00:04;;;;;;;931.45;868.20;;;;;;;-146.32;100.00;63746.28;689825;28;116001;-59
2022/10/02 00:00:33;;;;;;;912.88;850.15;;;;;;;-146.32;100.00;63746.28;688952;28;138194;-60
2022/10/02 00:00:57;;;;;;;928.42;865.20;;;;;;;-146.32;100.00;63746.28;691698;28;67463;-61
2022/10/02 00:01:25;;;;;;;931.58;868.20;;;;;;;-146.32;100.00;63746.28;689701;28;114812;-59
2022/10/02 00:01:49;;;;;;;922.42;859.45;;;;;;;-146.32;100.00;63746.28;689177;28;137964;-61
2022/10/02 00:02:14;;;;;;;912.78;850.20;;;;;;;-146.32;100.00;63746.28;692022;28;111921;-61
2022/10/02 00:02:38;;;;;;;937.80;874.28;;;;;;;-146.32;100.00;63746.28;692633;28;113537;-61
2022/10/02 00:03:05;;;;;;;943.42;879.78;;;;;;;-146.32;100.00;63746.28;693380;28;92215;-59
2022/10/02 00:03:27;;;;;;;918.67;855.83;;;;;;;-146.32;100.00;63746.28;691839;28;137726;-59
2022/10/02 00:03:49;;;;;;;926.83;863.80;;;;;;;-146.32;100.00;63746.28;695067;28;44388;-60
2022/10/02 00:04:13;;;;;;;930.58;867.33;;;;;;;-146.32;100.00;63746.28;695956;28;21331;-61
2022/10/02 00:04:39;;;;;;;955.17;891.00;;;;;;;-146.32;100.00;63746.28;694218;28;63522;-61
2022/10/02 00:05:02;;;;;;;935.10;871.67;;;;;;;-146.32;100.00;63746.28;691787;28;137926;-61
2022/10/02 00:05:28;;;;;;;914.08;851.53;;;;;;;-146.32;100.00;63746.28;694198;28;69542;-61
2022/10/02 00:05:52;;;;;;;935.83;872.35;;;;;;;-146.32;100.00;63746.28;691840;28;136404;-60
2022/10/02 00:06:18;;;;;;;930.88;867.60;;;;;;;-146.32;100.00;63746.28;693312;28;93057;-60
2022/10/02 00:06:43;;;;;;;920.50;857.47;;;;;;;-146.32;100.00;63746.28;691776;28;137971;-60
2022/10/02 00:07:06;;;;;;;939.38;875.55;;;;;;;-146.32;100.00;63746.28;688421;28;138121;-59
2022/10/02 00:07:31;;;;;;;955.95;891.70;;;;;;;-146.32;100.00;63746.28;691744;28;45215;-60
2022/10/02 00:07:58;;;;;;;952.55;888.53;;;;;;;-146.32;100.00;63746.28;691068;28;59650;-60
2022/10/02 00:08:24;;;;;;;962.90;898.60;;;;;;;-146.32;100.00;63746.28;689703;28;115048;-61
2022/10/02 00:08:47;;;;;;;958.10;893.83;;;;;;;-146.32;100.00;63746.28;688064;28;161072;-61
2022/10/02 00:09:18;;;;;;;951.00;886.97;;;;;;;-146.32;100.00;63746.28;691487;28;68420;-60
2022/10/02 00:09:43;;;;;;;942.65;878.85;;;;;;;-146.32;100.00;63746.28;687799;28;135955;-61
2022/10/02 00:10:11;;;;;;;940.58;876.88;;;;;;;-146.32;100.00;63746.28;688372;28;115838;-61
2022/10/02 00:10:37;;;;;;;929.03;865.58;;;;;;;-146.32;100.00;63746.28;690416;28;62182;-61
2022/10/02 00:11:00;;;;;;;953.08;888.92;;;;;;;-146.32;100.00;63746.28;686871;28;115298;-60
2022/10/02 00:11:24;;;;;;;951.28;887.22;;;;;;;-146.32;100.00;63746.28;687495;28;92361;-59
2022/10/02 00:11:48;;;;;;;949.63;885.67;;;;;;;-146.32;100.00;63746.28;690488;28;69429;-59
2022/10/02 00:12:12;;;;;;;936.05;872.45;;;;;;;-146.32;100.00;63746.28;692016;28;90223;-61
2022/10/02 00:12:34;;;;;;;927.90;864.60;;;;;;;-146.32;100.00;63746.28;692640;28;113987;-61
2022/10/02 00:13:01;;;;;;;927.75;864.42;;;;;;;-146.32;100.00;63746.28;694159;28;69232;-61
2022/10/02 00:13:25;;;;;;;932.53;869.00;;;;;;;-146.32;100.00;63746.28;688954;28;161062;-59
2022/10/02 00:13:51;;;;;;;944.95;881.08;;;;;;;-146.32;100.00;63746.28;692859;28;62105;-61
2022/10/02 00:14:17;;;;;;;952.35;888.25;;;;;;;-146.32;100.00;63746.28;692474;28;115963;-61
2022/10/02 00:14:39;;;;;;;956.28;892.08;;;;;;;-146.32;100.00;63746.28;692615;28;113531;-59
2022/10/02 00:15:06;;;;;;;932.28;868.85;;;;;;;-146.32;100.00;63746.28;694209;28;67313;-61
2022/10/02 00:15:29;;;;;;;935.78;872.28;;;;;;;-146.32;100.00;63746.28;691689;28;138187;-61
2022/10/02 00:15:52;;;;;;;941.70;878.00;;;;;;;-146.32;100.00;63746.28;694269;28;67468;-61
2022/10/02 00:16:20;;;;;;;937.00;873.45;;;;;;;-146.32;100.00;63746.28;695008;28;46013;-61
2022/10/02 00:16:43;;;;;;;931.90;868.60;;;;;;;-146.32;100.00;63746.28;686403;28;137941;-58
2022/10/02 00:17:05;;;;;;;937.17;873.33;;;;;;;-146.32;100.00;63746.28;687259;28;69420;-59
2022/10/02 00:17:31;;;;;;;943.78;879.95;;;;;;;-146.32;100.00;63746.28;689329;28;45362;-60
2022/10/02 00:17:55;;;;;;;939.15;875.70;;;;;;;-146.32;100.00;63746.28;686352;28;138139;-61
2022/10/02 00:18:20;;;;;;;921.25;858.28;;;;;;;-146.32;100.00;63746.28;687953;28;90474;-61
2022/10/02 00:18:41;;;;;;;936.30;872.80;;;;;;;-146.32;100.00;63746.28;687304;28;114987;-61
2022/10/02 00:19:04;;;;;;;933.75;870.30;;;;;;;-146.32;100.00;63746.28;690300;28;23485;-59
2022/10/02 00:19:25;;;;;;;950.00;885.97;;;;;;;-146.32;100.00;63746.28;688654;28;69458;-60
2022/10/02 00:19:46;;;;;;;954.40;890.30;;;;;;;-146.32;100.00;63746.28;690374;28;21475;-60
2022/10/02 00:20:11;;;;;;;952.47;888.33;;;;;;;-146.32;100.00;63746.28;690379;28;22268;-59
2022/10/02 00:20:39;;;;;;;944.92;881.08;;;;;;;-146.32;100.00;63746.28;685730;28;136633;-59
2022/10/02 00:21:04;;;;;;;928.28;865.05;;;;;;;-146.32;100.00;63746.28;686145;28;137955;-59
2022/10/02 00:21:52;;;;;;;940.42;876.78;;;;;;;-146.32;100.00;63746.28;688878;28;114979;-60
2022/10/02 00:22:26;;;;;;;929.47;866.17;;;;;;;-146.32;100.00;63746.28;687462;28;158047;-61
2022/10/02 00:22:52;;;;;;;936.00;872.45;;;;;;;-146.32;100.00;63746.28;691602;28;60205;-61
2022/10/02 00:23:17;;;;;;;931.30;867.80;;;;;;;-146.32;100.00;63746.28;689579;28;113236;-61
2022/10/02 00:23:40;;;;;;;932.80;869.30;;;;;;;-146.32;100.00;63746.28;689758;28;113660;-61
2022/10/02 00:24:02;;;;;;;929.05;865.65;;;;;;;-146.32;100.00;63746.28;691606;28;69412;-61
2022/10/02 00:24:26;;;;;;;930.78;867.45;;;;;;;-146.32;100.00;63746.28;691376;28;69097;-60
2022/10/02 00:24:56;;;;;;;920.17;857.20;;;;;;;-146.32;100.00;63746.28;690833;28;90456;-61
2022/10/02 00:25:24;;;;;;;932.60;869.05;;;;;;;-146.32;100.00;63746.28;688859;28;137711;-60
2022/10/02 00:25:50;;;;;;;942.20;878.60;;;;;;;-146.32;100.00;63746.28;688343;28;160829;-61
2022/10/02 00:26:16;;;;;;;951.50;887.58;;;;;;;-146.32;100.00;63746.28;688421;28;161219;-61
2022/10/02 00:26:39;;;;;;;928.58;865.38;;;;;;;-146.32;100.00;63746.28;689153;28;136467;-61
2022/10/02 00:27:08;;;;;;;932.35;868.63;;;;;;;-146.32;100.00;63746.28;689277;28;90694;-61
2022/10/02 00:27:39;;;;;;;938.40;874.85;;;;;;;-146.32;100.00;63746.28;688998;28;135840;-61
2022/10/02 00:28:10;;;;;;;940.17;876.78;;;;;;;-146.32;100.00;63746.28;689167;28;137634;-60
2022/10/02 00:28:38;;;;;;;930.25;867.00;;;;;;;-146.32;100.00;63746.28;686228;28;138440;-61
2022/10/02 00:29:06;;;;;;;928.67;865.40;;;;;;;-146.32;100.00;63746.28;686494;28;136419;-60
2022/10/02 00:29:32;;;;;;;929.13;865.90;;;;;;;-146.32;100.00;63746.28;685457;28;160960;-61
2022/10/02 00:29:56;;;;;;;923.97;860.88;;;;;;;-146.32;100.00;63746.28;688226;28;136102;-61
2022/10/02 00:30:17;;;;;;;923.33;860.22;;;;;;;-146.32;100.00;63746.28;690626;28;92302;-61
2022/10/02 00:30:50;;;;;;;922.47;859.38;;;;;;;-146.32;100.00;63746.28;693268;28;22302;-60
2022/10/02 00:31:20;;;;;;;922.70;859.65;;;;;;;-146.32;100.00;63746.28;689117;28;136041;-60
2022/10/02 00:31:46;;;;;;;923.15;860.03;;;;;;;-146.32;100.00;63746.28;686465;28;136547;-62
2022/10/02 00:32:17;;;;;;;931.42;868.03;;;;;;;-146.32;100.00;63746.28;687098;28;136354;-59
2022/10/02 00:32:45;;;;;;;933.83;870.33;;;;;;;-146.32;100.00;63746.28;689144;28;137110;-59
2022/10/02 00:33:12;;;;;;;926.95;863.65;;;;;;;-146.32;100.00;63746.28;688979;28;136248;-61
2022/10/02 00:33:45;;;;;;;925.40;862.17;;;;;;;-146.32;100.00;63746.28;688381;28;138608;-59
2022/10/02 00:34:20;;;;;;;918.83;855.83;;;;;;;-146.32;100.00;63746.28;688847;28;137705;-62
2022/10/02 00:34:51;;;;;;;940.55;876.85;;;;;;;-146.32;100.00;63746.28;688793;28;137713;-61
2022/10/02 00:35:46;;;;;;;924.83;861.67;;;;;;;-146.32;100.00;63746.28;689182;28;137564;-60
2022/10/02 00:36:17;;;;;;;936.58;873.08;;;;;;;-146.32;100.00;63746.28;688976;28;138377;-61
2022/10/02 00:36:43;;;;;;;934.35;870.80;;;;;;;-146.32;100.00;63746.28;688514;28;136024;-60
2022/10/02 00:37:10;;;;;;;944.75;880.65;;;;;;;-146.32;100.00;63746.28;686068;28;136397;-61
2022/10/02 00:37:38;;;;;;;945.83;881.97;;;;;;;-146.32;100.00;63746.28;688622;28;138483;-60
2022/10/02 00:38:05;;;;;;;919.20;856.33;;;;;;;-146.32;100.00;63746.28;688698;28;137851;-60
2022/10/02 00:38:37;;;;;;;931.92;868.75;;;;;;;-146.32;100.00;63746.28;688774;28;137973;-60
2022/10/02 00:39:03;;;;;;;944.33;880.55;;;;;;;-146.32;100.00;63746.28;685398;28;160202;-61
2022/10/02 00:39:34;;;;;;;950.42;886.42;;;;;;;-146.32;100.00;63746.28;688052;28;136447;-61
2022/10/02 00:40:08;;;;;;;933.13;869.67;;;;;;;-146.32;100.00;63746.28;688986;28;137735;-60
2022/10/02 00:40:42;;;;;;;941.78;878.08;;;;;;;-146.32;100.00;63746.28;689019;28;135983;-61
2022/10/02 00:41:26;;;;;;;940.53;876.85;;;;;;;-146.32;100.00;63746.28;689085;28;137850;-61
2022/10/02 00:42:10;;;;;;;945.00;881.17;;;;;;;-146.32;100.00;63746.28;689102;28;136059;-60
2022/10/02 00:42:49;;;;;;;921.03;857.90;;;;;;;-146.32;100.00;63746.28;689710;28;180242;-61
2022/10/02 00:43:20;;;;;;;938.40;874.70;;;;;;;-146.32;100.00;63746.28;691851;28;137688;-60
2022/10/02 00:43:49;;;;;;;947.60;883.70;;;;;;;-146.32;100.00;63746.28;691910;28;137721;-60
2022/10/02 00:44:26;;;;;;;954.25;890.13;;;;;;;-146.32;100.00;63746.28;691713;28;138798;-60
2022/10/02 00:45:01;;;;;;;940.55;876.90;;;;;;;-146.32;100.00;63746.28;691879;28;137896;-61
2022/10/02 00:45:44;;;;;;;922.00;858.85;;;;;;;-146.32;100.00;63746.28;691650;28;136041;-62
2022/10/02 00:46:21;;;;;;;953.10;888.95;;;;;;;-146.32;100.00;63746.28;690905;28;158939;-60
2022/10/02 00:46:49;;;;;;;949.70;885.80;;;;;;;-146.32;100.00;63746.28;691195;28;160491;-60
2022/10/02 00:47:17;;;;;;;932.65;869.05;;;;;;;-146.32;100.00;63746.28;689889;28;156689;-60
2022/10/02 00:47:42;;;;;;;930.55;867.30;;;;;;;-146.32;100.00;63746.28;691075;28;160651;-61
2022/10/02 00:48:11;;;;;;;942.75;879.03;;;;;;;-146.32;100.00;63746.28;692738;28;113915;-60
2022/10/02 00:48:50;;;;;;;933.47;870.10;;;;;;;-146.32;100.00;63746.28;686218;28;137341;-60
2022/10/02 00:49:33;;;;;;;942.67;878.97;;;;;;;-146.32;100.00;63746.28;686464;28;136035;-61
2022/10/02 00:50:17;;;;;;;943.42;879.67;;;;;;;-146.32;100.00;63746.28;688917;28;62286;-60
2022/10/02 00:50:43;;;;;;;938.38;874.63;;;;;;;-146.32;100.00;63746.28;685522;28;160850;-60
2022/10/02 00:51:11;;;;;;;936.70;873.10;;;;;;;-146.32;100.00;63746.28;686131;28;137683;-60
2022/10/02 00:51:59;;;;;;;943.97;880.03;;;;;;;-146.32;100.00;63746.28;687081;28;137454;-62
2022/10/02 00:52:33;;;;;;;940.28;876.47;;;;;;;-146.32;100.00;63746.28;678786;28;157243;-62
2022/10/02 00:53:07;;;;;;;940.05;876.28;;;;;;;-146.32;100.00;63746.28;677649;29;136325;-61
2022/10/02 00:53:35;;;;;;;939.67;876.03;;;;;;;-146.32;100.00;63746.28;688702;28;138387;-59
2022/10/02 00:54:05;;;;;;;953.72;889.55;;;;;;;-146.32;100.00;63746.28;688837;28;138033;-60
2022/10/02 00:54:56;;;;;;;935.13;871.65;;;;;;;-146.32;100.00;63746.28;687929;28;158576;-60
2022/10/02 00:55:33;;;;;;;926.80;863.45;;;;;;;-146.32;100.00;63746.28;686047;28;137671;-60
2022/10/02 00:56:03;;;;;;;941.53;877.72;;;;;;;-146.32;100.00;63746.28;686213;28;138517;-60
2022/10/02 00:56:31;;;;;;;951.88;887.78;;;;;;;-146.32;100.00;63746.28;686253;28;137761;-60
2022/10/02 00:57:01;;;;;;;934.92;871.42;;;;;;;-146.32;100.00;63746.28;685884;28;160956;-61
2022/10/02 00:57:33;;;;;;;927.90;864.33;;;;;;;-146.32;100.00;63746.28;688898;28;137693;-59
2022/10/02 00:58:05;;;;;;;933.78;870.55;;;;;;;-146.32;100.00;63746.28;689143;28;135957;-60
2022/10/02 00:58:39;;;;;;;939.05;875.55;;;;;;;-146.32;100.00;63746.28;688913;28;136019;-60
2022/10/02 00:59:20;;;;;;;940.05;876.33;;;;;;;-146.32;100.00;63746.28;688826;28;138306;-60
2022/10/02 00:59:51;;;;;;;933.17;869.72;;;;;;;-146.32;100.00;63746.28;689123;28;137702;-60
2022/10/02 01:00:15;;;;;;;936.40;872.88;;;;;;;-146.32;100.00;63746.28;689128;28;137815;-61
2022/10/02 01:00:38;;;;;;;930.75;867.40;;;;;;;-146.32;100.00;63746.28;693117;28;16013;-60
2022/10/02 01:01:02;;;;;;;940.35;876.72;;;;;;;-146.32;100.00;63746.28;692261;28;46426;-60
2022/10/02 01:01:29;;;;;;;950.13;886.10;;;;;;;-146.32;100.00;63746.28;689675;28;113589;-60
2022/10/02 01:01:54;;;;;;;931.58;868.20;;;;;;;-146.32;100.00;63746.28;688139;28;138299;-61
2022/10/02 01:02:43;;;;;;;929.65;866.15;;;;;;;-146.32;100.00;63746.28;689655;28;115835;-61
2022/10/02 01:03:11;;;;;;;936.15;872.50;;;;;;;-146.32;100.00;63746.28;688894;28;137520;-61
2022/10/02 01:03:37;;;;;;;931.47;868.08;;;;;;;-146.32;100.00;63746.28;687003;28;115126;-59
2022/10/02 01:04:00;;;;;;;939.80;876.17;;;;;;;-146.32;100.00;63746.28;686285;28;138230;-62
2022/10/02 01:04:26;;;;;;;944.47;880.60;;;;;;;-146.32;100.00;63746.28;688409;28;69499;-61
2022/10/02 01:04:48;;;;;;;934.00;870.42;;;;;;;-146.32;100.00;63746.28;687233;28;138085;-61
2022/10/02 01:05:10;;;;;;;943.25;879.25;;;;;;;-146.32;100.00;63746.28;691979;28;46346;-61
2022/10/02 01:05:32;;;;;;;942.17;878.28;;;;;;;-146.32;100.00;63746.28;692184;28;46304;-61
2022/10/02 01:05:53;;;;;;;946.03;882.17;;;;;;;-146.32;100.00;63746.28;692311;28;44205;-61
2022/10/02 01:06:15;;;;;;;936.38;872.88;;;;;;;-146.32;100.00;63746.28;692858;28;21303;-62
2022/10/02 01:06:37;;;;;;;940.67;877.03;;;;;;;-146.32;100.00;63746.28;692212;28;45321;-61
2022/10/02 01:06:58;;;;;;;952.03;887.70;;;;;;;-146.32;100.00;63746.28;690830;28;45272;-61
2022/10/02 01:07:20;;;;;;;949.13;884.75;;;;;;;-146.32;100.00;63746.28;692747;28;22410;-59
2022/10/02 01:07:44;;;;;;;943.30;879.53;;;;;;;-146.32;100.00;63746.28;692277;28;46370;-61
2022/10/02 01:08:05;;;;;;;920.60;857.65;;;;;;;-146.32;100.00;63746.28;690414;28;92229;-61
2022/10/02 01:08:28;;;;;;;926.78;863.67;;;;;;;-146.32;100.00;63746.28;692403;28;21261;-61
2022/10/02 01:08:50;;;;;;;936.33;872.95;;;;;;;-146.32;100.00;63746.28;691139;28;70535;-61
2022/10/02 01:09:11;;;;;;;943.42;879.72;;;;;;;-146.32;100.00;63746.28;691326;28;69496;-61
2022/10/02 01:09:33;;;;;;;943.22;879.42;;;;;;;-146.32;100.00;63746.28;692769;28;21545;-61
2022/10/02 01:09:54;;;;;;;939.13;875.40;;;;;;;-146.32;100.00;63746.28;692795;28;21200;-61
2022/10/02 01:10:16;;;;;;;948.65;884.65;;;;;;;-146.32;100.00;63746.28;692820;28;21546;-60
2022/10/02 01:10:39;;;;;;;940.53;876.75;;;;;;;-146.32;100.00;63746.28;691897;28;46352;-61
2022/10/02 01:11:01;;;;;;;930.47;867.05;;;;;;;-146.32;100.00;63746.28;691148;28;69412;-59
2022/10/02 01:11:23;;;;;;;933.88;870.40;;;;;;;-146.32;100.00;63746.28;691993;28;45333;-61
2022/10/02 01:11:44;;;;;;;946.40;882.53;;;;;;;-146.32;100.00;63746.28;692098;28;46343;-59
2022/10/02 01:12:07;;;;;;;946.15;882.33;;;;;;;-146.32;100.00;63746.28;692320;28;22395;-61
2022/10/02 01:12:28;;;;;;;934.47;871.00;;;;;;;-146.32;100.00;63746.28;688557;28;67456;-60
2022/10/02 01:12:49;;;;;;;938.63;875.05;;;;;;;-146.32;100.00;63746.28;690242;28;23485;-60
2022/10/02 01:13:12;;;;;;;952.75;888.72;;;;;;;-146.32;100.00;63746.28;690069;28;23401;-58
2022/10/02 01:13:33;;;;;;;933.22;869.72;;;;;;;-146.32;100.00;63746.28;691378;28;69717;-59
2022/10/02 01:13:54;;;;;;;946.13;882.28;;;;;;;-146.32;100.00;63746.28;693022;28;21529;-59
2022/10/02 01:14:15;;;;;;;942.20;878.45;;;;;;;-146.32;100.00;63746.28;693039;28;21575;-59
2022/10/02 01:14:40;;;;;;;944.05;880.17;;;;;;;-146.32;100.00;63746.28;692964;28;23500;-61
2022/10/02 01:15:01;;;;;;;940.03;876.30;;;;;;;-146.32;100.00;63746.28;690539;28;93363;-61
2022/10/02 01:15:28;;;;;;;941.90;878.15;;;;;;;-146.32;100.00;63746.28;692817;28;22380;-59
2022/10/02 01:15:53;;;;;;;933.78;870.40;;;;;;;-146.32;100.00;63746.28;688968;28;137909;-60
2022/10/02 01:16:15;;;;;;;943.75;879.83;;;;;;;-146.32;100.00;63746.28;688843;28;138101;-61
2022/10/02 01:16:37;;;;;;;941.35;877.53;;;;;;;-146.32;100.00;63746.28;692087;28;46301;-60
2022/10/02 01:16:58;;;;;;;948.08;884.03;;;;;;;-146.32;100.00;63746.28;692542;28;23464;-60
2022/10/02 01:17:23;;;;;;;959.75;895.22;;;;;;;-146.32;100.00;63746.28;692090;28;47337;-60
2022/10/02 01:17:44;;;;;;;933.25;869.83;;;;;;;-146.32;100.00;63746.28;692583;28;115345;-60
2022/10/02 01:18:06;;;;;;;935.47;871.92;;;;;;;-146.32;100.00;63746.28;695731;28;22479;-61
2022/10/02 01:18:28;;;;;;;930.33;867.00;;;;;;;-146.32;100.00;63746.28;694796;28;46303;-61
2022/10/02 01:18:50;;;;;;;934.38;870.95;;;;;;;-146.32;100.00;63746.28;695031;28;42753;-61
2022/10/02 01:19:22;;;;;;;936.35;872.83;;;;;;;-146.32;100.00;63746.28;695053;28;46272;-61
2022/10/02 01:19:44;;;;;;;943.72;880.25;;;;;;;-146.32;100.00;63746.28;691738;28;137311;-60
2022/10/02 01:20:06;;;;;;;937.63;874.25;;;;;;;-146.32;100.00;63746.28;695773;28;22314;-61
2022/10/02 01:20:33;;;;;;;949.40;885.45;;;;;;;-146.32;100.00;63746.28;691759;28;70220;-61
2022/10/02 01:20:58;;;;;;;930.83;867.47;;;;;;;-146.32;100.00;63746.28;689006;28;137799;-60
2022/10/02 01:21:24;;;;;;;943.85;879.95;;;;;;;-146.32;100.00;63746.28;690571;28;115174;-60
2022/10/02 01:21:49;;;;;;;944.40;880.55;;;;;;;-146.32;100.00;63746.28;691595;28;136925;-59
2022/10/02 01:22:20;;;;;;;951.95;887.78;;;;;;;-146.32;100.00;63746.28;693027;28;80197;-59
2022/10/02 01:22:45;;;;;;;924.25;861.30;;;;;;;-146.32;100.00;63746.28;691748;28;139335;-61
2022/10/02 01:23:14;;;;;;;945.15;881.53;;;;;;;-146.32;100.00;63746.28;691878;28;115844;-61
2022/10/02 01:23:39;;;;;;;951.83;887.63;;;;;;;-146.32;100.00;63746.28;686792;28;136106;-61
2022/10/02 01:24:04;;;;;;;945.40;881.65;;;;;;;-146.32;100.00;63746.28;689910;28;115560;-61
2022/10/02 01:24:29;;;;;;;956.47;892.42;;;;;;;-146.32;100.00;63746.28;689716;28;113788;-61
2022/10/02 01:24:53;;;;;;;953.95;889.80;;;;;;;-146.32;100.00;63746.28;692020;28;115151;-61
2022/10/02 01:25:14;;;;;;;938.65;875.00;;;;;;;-146.32;100.00;63746.28;693048;28;92214;-61
2022/10/02 01:25:35;;;;;;;936.60;873.15;;;;;;;-146.32;100.00;63746.28;695418;28;23553;-61
2022/10/02 01:25:57;;;;;;;938.38;874.90;;;;;;;-146.32;100.00;63746.28;695447;28;23464;-61
2022/10/02 01:26:19;;;;;;;953.30;889.30;;;;;;;-146.32;100.00;63746.28;694662;28;44391;-62
2022/10/02 01:26:40;;;;;;;944.50;880.75;;;;;;;-146.32;100.00;63746.28;693911;28;44371;-60
2022/10/02 01:27:01;;;;;;;931.33;867.78;;;;;;;-146.32;100.00;63746.28;691568;28;21526;-61
2022/10/02 01:27:24;;;;;;;940.88;876.95;;;;;;;-146.32;100.00;63746.28;692808;28;22507;-61
2022/10/02 01:27:45;;;;;;;941.22;877.33;;;;;;;-146.32;100.00;63746.28;691982;28;46282;-61
2022/10/02 01:28:07;;;;;;;947.67;883.75;;;;;;;-146.32;100.00;63746.28;693102;28;22391;-61
2022/10/02 01:28:29;;;;;;;946.47;882.63;;;;;;;-146.32;100.00;63746.28;691836;28;46380;-61
2022/10/02 01:28:50;;;;;;;942.60;878.90;;;;;;;-146.32;100.00;63746.28;692100;28;45229;-61
2022/10/02 01:29:11;;;;;;;949.30;885.53;;;;;;;-146.32;100.00;63746.28;692878;28;23529;-61
2022/10/02 01:29:32;;;;;;;926.55;863.35;;;;;;;-146.32;100.00;63746.28;693002;28;22390;-61
2022/10/02 01:29:56;;;;;;;933.13;869.65;;;;;;;-146.32;100.00;63746.28;691772;28;44159;-61
2022/10/02 01:30:19;;;;;;;941.47;877.72;;;;;;;-146.32;100.00;63746.28;691226;28;69389;-61
2022/10/02 01:30:42;;;;;;;945.08;881.17;;;;;;;-146.32;100.00;63746.28;691370;28;67454;-61
2022/10/02 01:31:07;;;;;;;947.38;883.50;;;;;;;-146.32;100.00;63746.28;693293;28;15227;-61
2022/10/02 01:31:29;;;;;;;929.95;866.58;;;;;;;-146.32;100.00;63746.28;689652;28;114997;-61
2022/10/02 01:31:50;;;;;;;922.72;859.63;;;;;;;-146.32;100.00;63746.28;691326;28;46387;-61
2022/10/02 01:32:11;;;;;;;948.80;884.80;;;;;;;-146.32;100.00;63746.28;698952;28;2024;-61
2022/10/02 01:32:33;;;;;;;950.35;886.45;;;;;;;-146.32;100.00;63746.28;698189;28;21507;-61
2022/10/02 01:32:57;;;;;;;947.80;883.92;;;;;;;-146.32;100.00;63746.28;696625;28;70238;-61
2022/10/02 01:33:18;;;;;;;948.10;884.13;;;;;;;-146.32;100.00;63746.28;695637;28;92252;-62
2022/10/02 01:33:41;;;;;;;941.67;878.03;;;;;;;-146.32;100.00;63746.28;698293;28;21290;-61
2022/10/02 01:34:03;;;;;;;946.40;882.60;;;;;;;-146.32;100.00;63746.28;695264;28;68259;-61
2022/10/02 01:34:28;;;;;;;948.75;884.85;;;;;;;-146.32;100.00;63746.28;695025;28;38957;-60
2022/10/02 01:34:50;;;;;;;938.75;875.17;;;;;;;-146.32;100.00;63746.28;694905;28;46377;-61
2022/10/02 01:35:12;;;;;;;944.83;881.00;;;;;;;-146.32;100.00;63746.28;694897;28;44368;-61
2022/10/02 01:35:35;;;;;;;937.00;873.30;;;;;;;-146.32;100.00;63746.28;695672;28;22407;-62
2022/10/02 01:35:58;;;;;;;932.60;869.20;;;;;;;-146.32;100.00;63746.28;693349;28;90741;-61
2022/10/02 01:36:20;;;;;;;943.78;880.08;;;;;;;-146.32;100.00;63746.28;694724;28;45235;-61
2022/10/02 01:36:42;;;;;;;944.25;880.45;;;;;;;-146.32;100.00;63746.28;693955;28;70327;-61
2022/10/02 01:37:03;;;;;;;964.38;899.65;;;;;;;-146.32;100.00;63746.28;693539;28;44368;-61
2022/10/02 01:37:27;;;;;;;954.38;889.95;;;;;;;-146.32;100.00;63746.28;695147;28;22341;-61
2022/10/02 01:37:50;;;;;;;942.22;878.53;;;;;;;-146.32;100.00;63746.28;693284;28;90708;-61
2022/10/02 01:38:12;;;;;;;930.17;866.78;;;;;;;-146.32;100.00;63746.28;693721;28;69406;-61
2022/10/02 01:38:34;;;;;;;934.42;870.80;;;;;;;-146.32;100.00;63746.28;694386;28;46462;-61
2022/10/02 01:38:56;;;;;;;934.67;871.22;;;;;;;-146.32;100.00;63746.28;694370;28;46252;-61
2022/10/02 01:39:17;;;;;;;931.70;868.40;;;;;;;-146.32;100.00;63746.28;694471;28;46337;-61
2022/10/02 01:39:39;;;;;;;926.75;863.63;;;;;;;-146.32;100.00;63746.28;695479;28;22417;-60
2022/10/02 01:40:05;;;;;;;937.72;874.08;;;;;;;-146.32;100.00;63746.28;694548;28;44483;-61
2022/10/02 01:40:28;;;;;;;939.83;876.13;;;;;;;-146.32;100.00;63746.28;692303;28;138371;-61
2022/10/02 01:40:49;;;;;;;940.22;876.60;;;;;;;-146.32;100.00;63746.28;696466;28;70008;-61
2022/10/02 01:41:12;;;;;;;948.03;884.15;;;;;;;-146.32;100.00;63746.28;698000;28;22316;-61
2022/10/02 01:41:37;;;;;;;957.83;893.65;;;;;;;-146.32;100.00;63746.28;696483;28;67452;-60
2022/10/02 01:41:58;;;;;;;956.20;892.00;;;;;;;-146.32;100.00;63746.28;692424;28;113519;-61
2022/10/02 01:42:20;;;;;;;964.42;899.92;;;;;;;-146.32;100.00;63746.28;695273;28;23495;-60
2022/10/02 01:42:41;;;;;;;947.88;883.92;;;;;;;-146.32;100.00;63746.28;694902;28;44324;-61
2022/10/02 01:43:05;;;;;;;941.50;877.78;;;;;;;-146.32;100.00;63746.28;694357;28;22440;-61
2022/10/02 01:43:29;;;;;;;945.42;881.45;;;;;;;-146.32;100.00;63746.28;690034;28;90729;-61
2022/10/02 01:43:52;;;;;;;931.78;868.30;;;;;;;-146.32;100.00;63746.28;687518;28;88247;-61
2022/10/02 01:44:15;;;;;;;940.50;876.80;;;;;;;-146.32;100.00;63746.28;687510;28;91794;-61
2022/10/02 01:44:37;;;;;;;947.63;883.63;;;;;;;-146.32;100.00;63746.28;688968;28;45401;-60
2022/10/02 01:44:59;;;;;;;930.53;866.95;;;;;;;-146.32;100.00;63746.28;688790;28;46310;-61
2022/10/02 01:45:30;;;;;;;919.80;856.72;;;;;;;-146.32;100.00;63746.28;690541;28;46393;-59
2022/10/02 01:45:57;;;;;;;944.47;880.58;;;;;;;-146.32;100.00;63746.28;687805;28;138015;-61
2022/10/02 01:46:35;;;;;;;944.83;881.00;;;;;;;-146.32;100.00;63746.28;688714;28;137848;-61
2022/10/02 01:47:02;;;;;;;937.80;874.10;;;;;;;-146.32;100.00;63746.28;687674;28;137824;-61
2022/10/02 01:47:31;;;;;;;933.00;869.50;;;;;;;-146.32;100.00;63746.28;688795;28;136464;-61
2022/10/02 01:48:00;;;;;;;927.58;864.17;;;;;;;-146.32;100.00;63746.28;688880;28;137552;-61
2022/10/02 01:48:43;;;;;;;936.92;873.45;;;;;;;-146.32;100.00;63746.28;688854;28;137942;-61
2022/10/02 01:49:19;;;;;;;947.70;883.90;;;;;;;-146.32;100.00;63746.28;688104;28;160843;-61
2022/10/02 01:49:55;;;;;;;937.58;874.03;;;;;;;-146.32;100.00;63746.28;686291;28;136004;-61
2022/10/02 01:50:22;;;;;;;945.65;881.75;;;;;;;-146.32;100.00;63746.28;685385;28;159221;-61
2022/10/02 01:50:54;;;;;;;933.67;870.08;;;;;;;-146.32;100.00;63746.28;686024;28;138570;-60
2022/10/02 01:51:36;;;;;;;952.70;888.55;;;;;;;-146.32;100.00;63746.28;685239;28;161378;-61
2022/10/02 01:52:13;;;;;;;931.33;867.83;;;;;;;-146.32;100.00;63746.28;685500;28;161257;-61
2022/10/02 01:52:44;;;;;;;952.55;888.45;;;;;;;-146.32;100.00;63746.28;688854;28;135810;-61
2022/10/02 01:53:12;;;;;;;950.00;885.90;;;;;;;-146.32;100.00;63746.28;688714;28;138798;-61
2022/10/02 01:53:41;;;;;;;927.03;863.67;;;;;;;-146.32;100.00;63746.28;688775;28;137882;-61
2022/10/02 01:54:11;;;;;;;941.05;877.38;;;;;;;-146.32;100.00;63746.28;688848;28;137664;-60
2022/10/02 01:54:43;;;;;;;934.25;870.67;;;;;;;-146.32;100.00;63746.28;688977;28;138097;-61
2022/10/02 01:55:17;;;;;;;928.75;865.42;;;;;;;-146.32;100.00;63746.28;688849;28;137653;-61
2022/10/02 01:55:43;;;;;;;952.53;888.42;;;;;;;-146.32;100.00;63746.28;688907;28;136308;-61